KIFP/IFP METAR and TAF weather

Enter ICAO airport designator
Station Type Date Time Source
KIFP METAR 2019/08/20 09:55 UTC NOAA

KIFP 200955Z AUTO 13003KT 10SM CLR 29/M01 A2979 RMK AO2


Station Type Date Time Source
KIFP Decoded METAR 2019/08/20 09:55 UTC NOAA

Bullhead City, Laughlin/Bullhead International Airport, AZ, United States (KIFP) 35-09-27N 114-33-34W
Aug 20, 2019 - 05:55 AM EDT / 2019.08.20 0955 UTC
Wind: from the SE (130 degrees) at 3 MPH (3 KT):0
Visibility: 10 mile(s):0
Sky conditions: clear
Temperature: 84 F (29 C)
Dew Point: 30 F (-1 C)
Relative Humidity: 14%
Pressure (altimeter): 29.79 in. Hg (1008 hPa)
ob: KIFP 200955Z AUTO 13003KT 10SM CLR 29/M01 A2979 RMK AO2
cycle: 10

Station Type Date Time Source
KIFP TAF 2019/08/20 06:22 UTC NOAA

TAF KIFP 200520Z 2006/2106 16006KT P6SM SKC
FM202000 18008G16KT P6SM SKC
FM210200 21007KT P6SM SKC
FM210400 16006KT P6SM SKC

Example: see airport list